Fairfield Municipal Airport
Monday 1:35 PM
Weather Sunny
VFR
Temperature 75°
Dew Point 28°
Feels Like 75°
Relative Humidity 18
%
Visibility 10
mi
Pressure 1014.6
mb
Wind Direction E
Wind Speed 17
mph
Last Hour Precip 0.00
"
KFFL 151835Z AUTO 10015KT 10SM CLR 24/M02 A2996 RMK A01

Recent Observations

Time Present Weather Temp DP Feels RH% Vsby Pressure Ceiling Direction Speed Gust 1h Precip
1:35PM
VFR
75° 28° 75° 18
%
10
mi
1014.6
mb
None E 17
mph
0.00"
KFFL 151835Z AUTO 10015KT 10SM CLR 24/M02 A2996 RMK A01
1:15PM
VFR
75° 28° 75° 18
%
10
mi
1014.9
mb
None ESE 10
mph
20
mph
0.00"
KFFL 151815Z AUTO 12009G17KT 10SM CLR 24/M02 A2997 RMK A01
12:55PM
VFR
75° 27° 75° 16
%
10
mi
1014.9
mb
None E 16
mph
0.00"
KFFL 151755Z AUTO 09014KT 10SM CLR 24/M03 A2997 RMK A01
12:35PM
VFR
73° 25° 73° 16
%
10
mi
1015.2
mb
None ESE 15
mph
22
mph
0.00"
KFFL 151735Z AUTO 11013G19KT 10SM CLR 23/M04 A2998 RMK A01
12:15PM
VFR
73° 25° 73° 16
%
10
mi
1015.2
mb
None E 14
mph
21
mph
0.00"
KFFL 151715Z AUTO 09012G18KT 10SM CLR 23/M04 A2998 RMK A01
11:55AM
VFR
73° 25° 73° 16
%
10
mi
1015.2
mb
None ESE 14
mph
21
mph
0.00"
KFFL 151655Z AUTO 11012G18KT 10SM CLR 23/M04 A2998 RMK A01
11:35AM
VFR
72° 27° 72° 19
%
10
mi
1015.2
mb
None E 16
mph
0.00"
KFFL 151635Z AUTO 09014KT 10SM CLR 22/M03 A2998 RMK A01
11:15AM
VFR
72° 27° 72° 19
%
10
mi
1015.2
mb
None E 16
mph
0.00"
KFFL 151615Z AUTO 09014KT 10SM CLR 22/M03 A2998 RMK A01
10:55AM
VFR
70° 27° 70° 20
%
10
mi
1015.2
mb
None E 17
mph
0.00"
KFFL 151555Z AUTO 09015KT 10SM CLR 21/M03 A2998 RMK A01
10:35AM
VFR
70° 27° 70° 20
%
10
mi
1015.2
mb
None E 14
mph
21
mph
0.00"
KFFL 151535Z AUTO 08012G18KT 10SM CLR 21/M03 A2998 RMK A01
10:15AM
VFR
68° 27° 68° 21
%
10
mi
1014.9
mb
None ENE 15
mph
22
mph
0.00"
KFFL 151515Z AUTO 07013G19KT 10SM CLR 20/M03 A2997 RMK A01
9:55AM
VFR
68° 27° 68° 21
%
10
mi
1014.6
mb
None E 16
mph
0.00"
KFFL 151455Z AUTO 08014KT 10SM CLR 20/M03 A2996 RMK A01
9:35AM
VFR
66° 27° 66° 22
%
10
mi
1014.6
mb
None ENE 14
mph
21
mph
0.00"
KFFL 151435Z AUTO 07012G18KT 10SM CLR 19/M03 A2996 RMK A01
9:15AM
VFR
64° 28° 64° 26
%
10
mi
1014.2
mb
None ENE 13
mph
0.00"
KFFL 151415Z AUTO 06011KT 10SM CLR 18/M02 A2995 RMK A01
8:55AM
VFR
61° 28° 61° 29
%
10
mi
1014.6
mb
None ENE 13
mph
0.00"
KFFL 151355Z AUTO 06011KT 10SM CLR 16/M02 A2996 RMK A01
8:35AM
VFR
59° 28° 59° 31
%
10
mi
1014.6
mb
None ENE 14
mph
0.00"
KFFL 151335Z AUTO 06012KT 10SM CLR 15/M02 A2996 RMK A01
8:15AM
VFR
57° 30° 57° 36
%
10
mi
1014.6
mb
None NE 13
mph
0.00"
KFFL 151315Z AUTO 05011KT 10SM CLR 14/M01 A2996 RMK A01
7:55AM
VFR
55° 30° 55° 38
%
10
mi
1014.6
mb
None NE 13
mph
0.00"
KFFL 151255Z AUTO 05011KT 10SM CLR 13/M01 A2996 RMK A01
7:35AM
VFR
52° 32° 52° 47
%
10
mi
1014.6
mb
None NNE 9
mph
0.00"
KFFL 151235Z AUTO 03008KT 10SM CLR 11/00 A2996 RMK A01
7:15AM
VFR
46° 34° 42° 61
%
10
mi
1014.6
mb
None NNE 8
mph
0.00"
KFFL 151215Z AUTO 02007KT 10SM CLR 08/01 A2996 RMK A01
Click here to show this page without METARs/TAFs included